sensor_id;sensor_type;location;lat;lon;timestamp;temperature;humidity
11122;DHT22;5615;49.304;10.576;2023-07-29T00:00:39;16.60;99.90
11122;DHT22;5615;49.304;10.576;2023-07-29T00:03:06;16.60;99.90
11122;DHT22;5615;49.304;10.576;2023-07-29T00:05:33;16.50;99.90
11122;DHT22;5615;49.304;10.576;2023-07-29T00:07:59;16.50;99.90
11122;DHT22;5615;49.304;10.576;2023-07-29T00:10:27;16.50;99.90
11122;DHT22;5615;49.304;10.576;2023-07-29T00:12:54;16.50;99.90
11122;DHT22;5615;49.304;10.576;2023-07-29T00:15:21;16.50;99.90
11122;DHT22;5615;49.304;10.576;2023-07-29T00:17:47;16.50;99.90
11122;DHT22;5615;49.304;10.576;2023-07-29T00:20:14;16.50;99.90
11122;DHT22;5615;49.304;10.576;2023-07-29T00:22:40;16.50;99.90
11122;DHT22;5615;49.304;10.576;2023-07-29T00:25:07;16.50;99.90
11122;DHT22;5615;49.304;10.576;2023-07-29T00:27:35;16.40;99.90
11122;DHT22;5615;49.304;10.576;2023-07-29T00:30:03;16.40;99.90
11122;DHT22;5615;49.304;10.576;2023-07-29T00:32:30;16.40;99.90
11122;DHT22;5615;49.304;10.576;2023-07-29T00:34:56;16.40;99.90
11122;DHT22;5615;49.304;10.576;2023-07-29T00:37:26;16.30;99.90
11122;DHT22;5615;49.304;10.576;2023-07-29T00:39:52;16.20;99.90
11122;DHT22;5615;49.304;10.576;2023-07-29T00:42:19;16.20;99.90
11122;DHT22;5615;49.304;10.576;2023-07-29T00:44:47;16.20;99.90
11122;DHT22;5615;49.304;10.576;2023-07-29T00:47:15;16.20;99.90
11122;DHT22;5615;49.304;10.576;2023-07-29T00:49:43;16.30;99.90
11122;DHT22;5615;49.304;10.576;2023-07-29T00:52:10;16.20;99.90
11122;DHT22;5615;49.304;10.576;2023-07-29T00:54:37;16.20;99.90
11122;DHT22;5615;49.304;10.576;2023-07-29T00:57:05;16.30;99.90
11122;DHT22;5615;49.304;10.576;2023-07-29T00:59:31;16.20;99.90
11122;DHT22;5615;49.304;10.576;2023-07-29T01:02:00;16.20;99.90
11122;DHT22;5615;49.304;10.576;2023-07-29T01:04:27;16.20;99.90
11122;DHT22;5615;49.304;10.576;2023-07-29T01:06:58;16.10;99.90
11122;DHT22;5615;49.304;10.576;2023-07-29T01:09:33;16.10;99.90
11122;DHT22;5615;49.304;10.576;2023-07-29T01:12:15;16.10;99.90
11122;DHT22;5615;49.304;10.576;2023-07-29T01:14:49;16.00;99.90
11122;DHT22;5615;49.304;10.576;2023-07-29T01:17:23;15.90;99.90
11122;DHT22;5615;49.304;10.576;2023-07-29T01:20:00;15.90;99.90
11122;DHT22;5615;49.304;10.576;2023-07-29T01:22:28;15.90;99.90
11122;DHT22;5615;49.304;10.576;2023-07-29T01:24:57;15.90;99.90
11122;DHT22;5615;49.304;10.576;2023-07-29T01:27:24;15.90;99.90
11122;DHT22;5615;49.304;10.576;2023-07-29T01:29:51;15.80;99.90
11122;DHT22;5615;49.304;10.576;2023-07-29T01:32:23;15.80;99.90
11122;DHT22;5615;49.304;10.576;2023-07-29T01:34:57;15.80;99.90
11122;DHT22;5615;49.304;10.576;2023-07-29T01:37:27;15.80;99.90
11122;DHT22;5615;49.304;10.576;2023-07-29T01:39:59;15.80;99.90
11122;DHT22;5615;49.304;10.576;2023-07-29T01:42:26;15.80;99.90
11122;DHT22;5615;49.304;10.576;2023-07-29T01:44:53;15.90;99.90
11122;DHT22;5615;49.304;10.576;2023-07-29T01:47:20;15.90;99.90
11122;DHT22;5615;49.304;10.576;2023-07-29T01:49:47;15.80;99.90
11122;DHT22;5615;49.304;10.576;2023-07-29T01:52:14;15.80;99.90
11122;DHT22;5615;49.304;10.576;2023-07-29T01:54:41;15.60;99.90
11122;DHT22;5615;49.304;10.576;2023-07-29T01:57:09;15.60;99.90
11122;DHT22;5615;49.304;10.576;2023-07-29T01:59:35;15.60;99.90
11122;DHT22;5615;49.304;10.576;2023-07-29T02:02:02;15.50;99.90
11122;DHT22;5615;49.304;10.576;2023-07-29T02:04:29;15.60;99.90
11122;DHT22;5615;49.304;10.576;2023-07-29T02:06:55;15.60;99.90
11122;DHT22;5615;49.304;10.576;2023-07-29T02:09:22;15.60;99.90
11122;DHT22;5615;49.304;10.576;2023-07-29T02:11:49;15.70;99.90
11122;DHT22;5615;49.304;10.576;2023-07-29T02:14:16;15.70;99.90
11122;DHT22;5615;49.304;10.576;2023-07-29T02:16:43;15.70;99.90
11122;DHT22;5615;49.304;10.576;2023-07-29T02:19:10;15.70;99.90
11122;DHT22;5615;49.304;10.576;2023-07-29T02:21:36;15.70;99.90
11122;DHT22;5615;49.304;10.576;2023-07-29T02:24:03;15.70;99.90
11122;DHT22;5615;49.304;10.576;2023-07-29T02:26:30;15.60;99.90
11122;DHT22;5615;49.304;10.576;2023-07-29T02:28:57;15.60;99.90
11122;DHT22;5615;49.304;10.576;2023-07-29T02:31:25;15.50;99.90
11122;DHT22;5615;49.304;10.576;2023-07-29T02:33:52;15.40;99.90
11122;DHT22;5615;49.304;10.576;2023-07-29T02:36:19;15.40;99.90
11122;DHT22;5615;49.304;10.576;2023-07-29T02:38:45;15.30;99.90
11122;DHT22;5615;49.304;10.576;2023-07-29T02:41:12;15.30;99.90
11122;DHT22;5615;49.304;10.576;2023-07-29T02:43:41;15.20;99.90
11122;DHT22;5615;49.304;10.576;2023-07-29T02:46:08;15.20;99.90
11122;DHT22;5615;49.304;10.576;2023-07-29T02:48:36;15.30;99.90
11122;DHT22;5615;49.304;10.576;2023-07-29T02:51:02;15.30;99.90
11122;DHT22;5615;49.304;10.576;2023-07-29T02:53:29;15.30;99.90
11122;DHT22;5615;49.304;10.576;2023-07-29T02:55:56;15.30;99.90
11122;DHT22;5615;49.304;10.576;2023-07-29T02:58:22;15.30;99.90
11122;DHT22;5615;49.304;10.576;2023-07-29T03:00:51;15.40;99.90
11122;DHT22;5615;49.304;10.576;2023-07-29T03:03:18;15.50;99.90
11122;DHT22;5615;49.304;10.576;2023-07-29T03:05:46;15.50;99.90
11122;DHT22;5615;49.304;10.576;2023-07-29T03:08:13;15.40;99.90
11122;DHT22;5615;49.304;10.576;2023-07-29T03:10:40;15.50;99.90
11122;DHT22;5615;49.304;10.576;2023-07-29T03:13:07;15.50;99.90
11122;DHT22;5615;49.304;10.576;2023-07-29T03:15:34;15.60;99.90
11122;DHT22;5615;49.304;10.576;2023-07-29T03:18:00;15.70;99.90
11122;DHT22;5615;49.304;10.576;2023-07-29T03:20:27;15.70;99.90
11122;DHT22;5615;49.304;10.576;2023-07-29T03:22:55;15.80;99.90
11122;DHT22;5615;49.304;10.576;2023-07-29T03:25:22;15.80;99.90
11122;DHT22;5615;49.304;10.576;2023-07-29T03:27:48;15.80;99.90
11122;DHT22;5615;49.304;10.576;2023-07-29T03:30:15;15.80;99.90
11122;DHT22;5615;49.304;10.576;2023-07-29T03:32:43;15.80;99.90
11122;DHT22;5615;49.304;10.576;2023-07-29T03:35:11;15.90;99.90
11122;DHT22;5615;49.304;10.576;2023-07-29T03:37:37;15.90;99.90
11122;DHT22;5615;49.304;10.576;2023-07-29T03:40:06;15.90;99.90
11122;DHT22;5615;49.304;10.576;2023-07-29T03:42:34;15.90;99.90
11122;DHT22;5615;49.304;10.576;2023-07-29T03:45:01;15.90;99.90
11122;DHT22;5615;49.304;10.576;2023-07-29T03:47:28;15.90;99.90
11122;DHT22;5615;49.304;10.576;2023-07-29T03:49:54;15.90;99.90
11122;DHT22;5615;49.304;10.576;2023-07-29T03:52:21;15.90;99.90
11122;DHT22;5615;49.304;10.576;2023-07-29T03:54:47;15.90;99.90
11122;DHT22;5615;49.304;10.576;2023-07-29T03:57:15;16.00;99.90
11122;DHT22;5615;49.304;10.576;2023-07-29T03:59:42;16.00;99.90
11122;DHT22;5615;49.304;10.576;2023-07-29T04:02:09;16.10;99.90
11122;DHT22;5615;49.304;10.576;2023-07-29T04:04:35;16.10;99.90
11122;DHT22;5615;49.304;10.576;2023-07-29T04:07:02;16.10;99.90
11122;DHT22;5615;49.304;10.576;2023-07-29T04:09:29;16.20;99.90
11122;DHT22;5615;49.304;10.576;2023-07-29T04:11:56;16.20;99.90
11122;DHT22;5615;49.304;10.576;2023-07-29T04:14:23;16.20;99.90
11122;DHT22;5615;49.304;10.576;2023-07-29T04:16:50;16.20;99.90
11122;DHT22;5615;49.304;10.576;2023-07-29T04:19:17;16.20;99.90
11122;DHT22;5615;49.304;10.576;2023-07-29T04:21:43;16.20;99.90
11122;DHT22;5615;49.304;10.576;2023-07-29T04:24:11;16.20;99.90
11122;DHT22;5615;49.304;10.576;2023-07-29T04:26:38;16.20;99.90
11122;DHT22;5615;49.304;10.576;2023-07-29T04:29:05;16.20;99.90
11122;DHT22;5615;49.304;10.576;2023-07-29T04:31:33;16.20;99.90
11122;DHT22;5615;49.304;10.576;2023-07-29T04:33:59;16.30;99.90
11122;DHT22;5615;49.304;10.576;2023-07-29T04:36:26;16.30;99.90
11122;DHT22;5615;49.304;10.576;2023-07-29T04:38:53;16.40;99.90
11122;DHT22;5615;49.304;10.576;2023-07-29T04:41:19;16.50;99.90
11122;DHT22;5615;49.304;10.576;2023-07-29T04:43:46;16.50;99.90
11122;DHT22;5615;49.304;10.576;2023-07-29T04:46:14;16.50;99.90
11122;DHT22;5615;49.304;10.576;2023-07-29T04:48:42;16.60;99.90
11122;DHT22;5615;49.304;10.576;2023-07-29T04:51:09;16.50;99.90
11122;DHT22;5615;49.304;10.576;2023-07-29T04:53:36;16.50;99.90
11122;DHT22;5615;49.304;10.576;2023-07-29T04:56:04;16.60;99.90
11122;DHT22;5615;49.304;10.576;2023-07-29T04:58:30;16.60;99.90
11122;DHT22;5615;49.304;10.576;2023-07-29T05:01:00;16.70;99.90
11122;DHT22;5615;49.304;10.576;2023-07-29T05:03:26;16.70;99.90
11122;DHT22;5615;49.304;10.576;2023-07-29T05:05:54;16.80;99.90
11122;DHT22;5615;49.304;10.576;2023-07-29T05:08:22;16.80;99.90
11122;DHT22;5615;49.304;10.576;2023-07-29T05:10:49;16.80;99.90
11122;DHT22;5615;49.304;10.576;2023-07-29T05:13:16;16.80;99.90
11122;DHT22;5615;49.304;10.576;2023-07-29T05:15:43;16.90;99.90
11122;DHT22;5615;49.304;10.576;2023-07-29T05:18:09;16.90;99.90
11122;DHT22;5615;49.304;10.576;2023-07-29T05:20:36;16.90;99.90
11122;DHT22;5615;49.304;10.576;2023-07-29T05:23:04;16.80;99.90
11122;DHT22;5615;49.304;10.576;2023-07-29T05:25:31;16.80;99.90
11122;DHT22;5615;49.304;10.576;2023-07-29T05:27:57;16.90;99.90
11122;DHT22;5615;49.304;10.576;2023-07-29T05:30:24;16.90;99.90
11122;DHT22;5615;49.304;10.576;2023-07-29T05:32:52;16.90;99.90
11122;DHT22;5615;49.304;10.576;2023-07-29T05:35:19;17.00;99.90
11122;DHT22;5615;49.304;10.576;2023-07-29T05:37:45;17.10;99.90
11122;DHT22;5615;49.304;10.576;2023-07-29T05:40:13;17.20;99.90
11122;DHT22;5615;49.304;10.576;2023-07-29T05:42:40;17.10;99.90
11122;DHT22;5615;49.304;10.576;2023-07-29T05:45:07;17.20;99.90
11122;DHT22;5615;49.304;10.576;2023-07-29T05:47:34;17.20;99.90
11122;DHT22;5615;49.304;10.576;2023-07-29T05:50:01;17.30;99.90
11122;DHT22;5615;49.304;10.576;2023-07-29T05:52:30;17.20;99.90
11122;DHT22;5615;49.304;10.576;2023-07-29T05:54:56;17.20;99.90
11122;DHT22;5615;49.304;10.576;2023-07-29T05:57:24;17.20;99.90
11122;DHT22;5615;49.304;10.576;2023-07-29T05:59:51;17.20;99.90
11122;DHT22;5615;49.304;10.576;2023-07-29T06:02:17;17.20;99.90
11122;DHT22;5615;49.304;10.576;2023-07-29T06:04:44;17.30;99.90
11122;DHT22;5615;49.304;10.576;2023-07-29T06:07:11;17.30;99.90
11122;DHT22;5615;49.304;10.576;2023-07-29T06:09:38;17.30;99.90
11122;DHT22;5615;49.304;10.576;2023-07-29T06:12:06;17.20;99.90
11122;DHT22;5615;49.304;10.576;2023-07-29T06:14:34;17.10;99.90
11122;DHT22;5615;49.304;10.576;2023-07-29T06:17:01;16.80;99.90
11122;DHT22;5615;49.304;10.576;2023-07-29T06:19:27;16.50;99.90
11122;DHT22;5615;49.304;10.576;2023-07-29T06:21:55;16.50;99.90
11122;DHT22;5615;49.304;10.576;2023-07-29T06:24:22;16.40;99.90
11122;DHT22;5615;49.304;10.576;2023-07-29T06:26:49;16.50;99.90
11122;DHT22;5615;49.304;10.576;2023-07-29T06:29:15;16.50;99.90
11122;DHT22;5615;49.304;10.576;2023-07-29T06:31:43;16.50;99.90
11122;DHT22;5615;49.304;10.576;2023-07-29T06:34:10;16.60;99.90
11122;DHT22;5615;49.304;10.576;2023-07-29T06:36:36;16.60;99.90
11122;DHT22;5615;49.304;10.576;2023-07-29T06:39:03;16.60;99.90
11122;DHT22;5615;49.304;10.576;2023-07-29T06:41:30;16.60;99.90
11122;DHT22;5615;49.304;10.576;2023-07-29T06:43:57;16.70;99.90
11122;DHT22;5615;49.304;10.576;2023-07-29T06:46:24;16.70;99.90
11122;DHT22;5615;49.304;10.576;2023-07-29T06:48:52;16.80;99.90
11122;DHT22;5615;49.304;10.576;2023-07-29T06:51:18;16.90;99.90
11122;DHT22;5615;49.304;10.576;2023-07-29T06:53:45;17.00;99.90
11122;DHT22;5615;49.304;10.576;2023-07-29T06:56:12;17.00;99.90
11122;DHT22;5615;49.304;10.576;2023-07-29T06:58:38;17.10;99.90
11122;DHT22;5615;49.304;10.576;2023-07-29T07:01:05;17.10;99.90
11122;DHT22;5615;49.304;10.576;2023-07-29T07:03:31;17.20;99.90
11122;DHT22;5615;49.304;10.576;2023-07-29T07:06:00;17.40;99.90
11122;DHT22;5615;49.304;10.576;2023-07-29T07:08:26;17.50;99.90
11122;DHT22;5615;49.304;10.576;2023-07-29T07:10:53;17.60;99.90
11122;DHT22;5615;49.304;10.576;2023-07-29T07:13:20;17.70;99.90
11122;DHT22;5615;49.304;10.576;2023-07-29T07:15:46;17.80;99.90
11122;DHT22;5615;49.304;10.576;2023-07-29T07:18:13;17.80;99.90
11122;DHT22;5615;49.304;10.576;2023-07-29T07:20:40;18.00;99.90
11122;DHT22;5615;49.304;10.576;2023-07-29T07:23:08;18.00;99.90
11122;DHT22;5615;49.304;10.576;2023-07-29T07:25:37;17.90;99.90
11122;DHT22;5615;49.304;10.576;2023-07-29T07:28:04;18.00;99.90
11122;DHT22;5615;49.304;10.576;2023-07-29T07:30:30;17.90;99.90
11122;DHT22;5615;49.304;10.576;2023-07-29T07:32:57;18.00;99.90
11122;DHT22;5615;49.304;10.576;2023-07-29T07:35:23;18.10;99.90
11122;DHT22;5615;49.304;10.576;2023-07-29T07:37:50;18.00;99.90
11122;DHT22;5615;49.304;10.576;2023-07-29T07:40:18;17.90;99.90
11122;DHT22;5615;49.304;10.576;2023-07-29T07:42:44;18.00;99.90
11122;DHT22;5615;49.304;10.576;2023-07-29T07:45:11;18.00;99.90
11122;DHT22;5615;49.304;10.576;2023-07-29T07:47:38;18.00;99.90
11122;DHT22;5615;49.304;10.576;2023-07-29T07:50:05;17.90;99.90
11122;DHT22;5615;49.304;10.576;2023-07-29T07:52:31;17.80;99.90
11122;DHT22;5615;49.304;10.576;2023-07-29T07:54:58;18.00;99.90
11122;DHT22;5615;49.304;10.576;2023-07-29T07:57:26;18.00;99.90
11122;DHT22;5615;49.304;10.576;2023-07-29T07:59:53;18.00;99.90
11122;DHT22;5615;49.304;10.576;2023-07-29T08:02:19;17.80;99.90
11122;DHT22;5615;49.304;10.576;2023-07-29T08:04:46;17.70;99.90
11122;DHT22;5615;49.304;10.576;2023-07-29T08:07:13;17.80;99.90
11122;DHT22;5615;49.304;10.576;2023-07-29T08:09:40;17.80;99.90
11122;DHT22;5615;49.304;10.576;2023-07-29T08:12:07;17.80;99.90
11122;DHT22;5615;49.304;10.576;2023-07-29T08:14:35;17.90;99.90
11122;DHT22;5615;49.304;10.576;2023-07-29T08:17:01;17.80;99.90
11122;DHT22;5615;49.304;10.576;2023-07-29T08:19:28;17.80;99.90
11122;DHT22;5615;49.304;10.576;2023-07-29T08:21:55;17.90;99.90
11122;DHT22;5615;49.304;10.576;2023-07-29T08:24:21;17.80;99.90
11122;DHT22;5615;49.304;10.576;2023-07-29T08:26:48;17.80;99.90
11122;DHT22;5615;49.304;10.576;2023-07-29T08:29:15;17.80;99.90
11122;DHT22;5615;49.304;10.576;2023-07-29T08:31:42;17.90;99.90
11122;DHT22;5615;49.304;10.576;2023-07-29T08:34:09;17.90;99.90
11122;DHT22;5615;49.304;10.576;2023-07-29T08:36:36;17.80;99.90
11122;DHT22;5615;49.304;10.576;2023-07-29T08:39:03;17.90;99.90
11122;DHT22;5615;49.304;10.576;2023-07-29T08:41:32;18.00;99.90
11122;DHT22;5615;49.304;10.576;2023-07-29T08:44:07;18.00;99.90
11122;DHT22;5615;49.304;10.576;2023-07-29T08:46:36;18.00;99.90
11122;DHT22;5615;49.304;10.576;2023-07-29T08:49:05;18.00;99.90
11122;DHT22;5615;49.304;10.576;2023-07-29T08:51:31;18.10;99.90
11122;DHT22;5615;49.304;10.576;2023-07-29T08:53:59;18.20;99.90
11122;DHT22;5615;49.304;10.576;2023-07-29T08:56:26;18.20;99.90
11122;DHT22;5615;49.304;10.576;2023-07-29T08:58:53;18.20;99.90
11122;DHT22;5615;49.304;10.576;2023-07-29T09:01:20;18.20;99.90
11122;DHT22;5615;49.304;10.576;2023-07-29T09:03:47;18.10;99.90
11122;DHT22;5615;49.304;10.576;2023-07-29T09:06:16;18.00;99.90
11122;DHT22;5615;49.304;10.576;2023-07-29T09:08:44;18.10;99.90
11122;DHT22;5615;49.304;10.576;2023-07-29T09:11:13;18.00;99.90
11122;DHT22;5615;49.304;10.576;2023-07-29T09:13:41;18.20;99.90
11122;DHT22;5615;49.304;10.576;2023-07-29T09:16:09;18.30;99.90
11122;DHT22;5615;49.304;10.576;2023-07-29T09:18:35;18.40;99.90
11122;DHT22;5615;49.304;10.576;2023-07-29T09:21:02;18.30;99.90
11122;DHT22;5615;49.304;10.576;2023-07-29T09:23:38;18.40;99.90
11122;DHT22;5615;49.304;10.576;2023-07-29T09:26:05;18.40;99.90
11122;DHT22;5615;49.304;10.576;2023-07-29T09:28:33;18.40;99.90
11122;DHT22;5615;49.304;10.576;2023-07-29T09:31:00;18.50;99.90
11122;DHT22;5615;49.304;10.576;2023-07-29T09:33:27;18.80;99.90
11122;DHT22;5615;49.304;10.576;2023-07-29T09:35:54;18.90;99.90
11122;DHT22;5615;49.304;10.576;2023-07-29T09:38:27;18.90;99.90
11122;DHT22;5615;49.304;10.576;2023-07-29T09:40:57;19.00;99.90
11122;DHT22;5615;49.304;10.576;2023-07-29T09:43:26;19.10;99.90
11122;DHT22;5615;49.304;10.576;2023-07-29T09:45:55;19.10;99.90
11122;DHT22;5615;49.304;10.576;2023-07-29T09:48:22;19.10;99.90
11122;DHT22;5615;49.304;10.576;2023-07-29T09:50:49;19.10;99.90
11122;DHT22;5615;49.304;10.576;2023-07-29T09:53:16;18.70;99.90
11122;DHT22;5615;49.304;10.576;2023-07-29T09:55:47;18.50;99.90
11122;DHT22;5615;49.304;10.576;2023-07-29T09:58:21;18.70;99.90
11122;DHT22;5615;49.304;10.576;2023-07-29T10:00:52;18.50;99.90
11122;DHT22;5615;49.304;10.576;2023-07-29T10:03:20;18.60;99.90
11122;DHT22;5615;49.304;10.576;2023-07-29T10:05:49;18.60;99.90
11122;DHT22;5615;49.304;10.576;2023-07-29T10:08:16;18.70;99.90
11122;DHT22;5615;49.304;10.576;2023-07-29T10:10:44;18.90;99.90
11122;DHT22;5615;49.304;10.576;2023-07-29T10:13:11;18.90;99.90
11122;DHT22;5615;49.304;10.576;2023-07-29T10:15:40;18.80;99.90
11122;DHT22;5615;49.304;10.576;2023-07-29T10:18:07;19.00;99.90
11122;DHT22;5615;49.304;10.576;2023-07-29T10:20:34;19.10;99.90
11122;DHT22;5615;49.304;10.576;2023-07-29T10:23:03;19.40;99.90
11122;DHT22;5615;49.304;10.576;2023-07-29T10:25:37;19.60;99.90
11122;DHT22;5615;49.304;10.576;2023-07-29T10:28:05;19.80;99.90
11122;DHT22;5615;49.304;10.576;2023-07-29T10:30:32;19.50;99.90
11122;DHT22;5615;49.304;10.576;2023-07-29T10:33:02;19.90;99.90
11122;DHT22;5615;49.304;10.576;2023-07-29T10:35:29;19.70;99.90
11122;DHT22;5615;49.304;10.576;2023-07-29T10:37:56;20.30;99.90
11122;DHT22;5615;49.304;10.576;2023-07-29T10:40:23;20.50;99.90
11122;DHT22;5615;49.304;10.576;2023-07-29T10:43:00;19.80;99.90
11122;DHT22;5615;49.304;10.576;2023-07-29T10:45:36;19.60;99.90
11122;DHT22;5615;49.304;10.576;2023-07-29T10:48:07;19.70;99.90
11122;DHT22;5615;49.304;10.576;2023-07-29T10:50:36;19.90;99.90
11122;DHT22;5615;49.304;10.576;2023-07-29T10:53:03;20.20;99.90
11122;DHT22;5615;49.304;10.576;2023-07-29T10:55:32;21.00;99.90
11122;DHT22;5615;49.304;10.576;2023-07-29T10:58:13;21.10;99.90
11122;DHT22;5615;49.304;10.576;2023-07-29T11:00:42;21.30;99.90
11122;DHT22;5615;49.304;10.576;2023-07-29T11:03:11;21.00;99.90
11122;DHT22;5615;49.304;10.576;2023-07-29T11:05:48;21.00;99.90
11122;DHT22;5615;49.304;10.576;2023-07-29T11:08:23;21.00;99.90
11122;DHT22;5615;49.304;10.576;2023-07-29T11:11:01;20.90;99.90
11122;DHT22;5615;49.304;10.576;2023-07-29T11:13:28;20.70;99.90
11122;DHT22;5615;49.304;10.576;2023-07-29T11:15:55;20.60;99.90
11122;DHT22;5615;49.304;10.576;2023-07-29T11:18:27;20.60;99.90
11122;DHT22;5615;49.304;10.576;2023-07-29T11:20:54;20.70;99.90
11122;DHT22;5615;49.304;10.576;2023-07-29T11:23:20;20.60;99.90
11122;DHT22;5615;49.304;10.576;2023-07-29T11:25:54;20.50;99.90
11122;DHT22;5615;49.304;10.576;2023-07-29T11:28:20;20.50;99.90
11122;DHT22;5615;49.304;10.576;2023-07-29T11:30:47;20.60;99.90
11122;DHT22;5615;49.304;10.576;2023-07-29T11:33:17;20.60;99.90
11122;DHT22;5615;49.304;10.576;2023-07-29T11:35:46;20.90;99.90
11122;DHT22;5615;49.304;10.576;2023-07-29T11:38:15;21.10;99.90
11122;DHT22;5615;49.304;10.576;2023-07-29T11:40:42;21.30;99.90
11122;DHT22;5615;49.304;10.576;2023-07-29T11:43:08;21.80;99.90
11122;DHT22;5615;49.304;10.576;2023-07-29T11:45:35;22.00;99.90
11122;DHT22;5615;49.304;10.576;2023-07-29T11:48:02;22.20;99.90
11122;DHT22;5615;49.304;10.576;2023-07-29T11:50:29;23.30;99.90
11122;DHT22;5615;49.304;10.576;2023-07-29T11:52:58;23.60;99.90
11122;DHT22;5615;49.304;10.576;2023-07-29T11:55:25;23.90;99.90
11122;DHT22;5615;49.304;10.576;2023-07-29T11:57:52;24.20;99.90
11122;DHT22;5615;49.304;10.576;2023-07-29T12:00:20;24.20;99.90
11122;DHT22;5615;49.304;10.576;2023-07-29T12:02:48;24.20;99.90
11122;DHT22;5615;49.304;10.576;2023-07-29T12:05:16;24.20;99.90
11122;DHT22;5615;49.304;10.576;2023-07-29T12:07:44;24.00;99.90
11122;DHT22;5615;49.304;10.576;2023-07-29T12:10:13;24.20;99.90
11122;DHT22;5615;49.304;10.576;2023-07-29T12:12:50;24.70;99.90
11122;DHT22;5615;49.304;10.576;2023-07-29T12:15:24;24.80;99.90
11122;DHT22;5615;49.304;10.576;2023-07-29T12:17:53;24.70;99.90
11122;DHT22;5615;49.304;10.576;2023-07-29T12:20:21;24.90;99.90
11122;DHT22;5615;49.304;10.576;2023-07-29T12:22:52;25.70;99.90
11122;DHT22;5615;49.304;10.576;2023-07-29T12:25:20;26.70;99.90
11122;DHT22;5615;49.304;10.576;2023-07-29T12:27:47;26.10;99.90
11122;DHT22;5615;49.304;10.576;2023-07-29T12:30:13;28.00;99.90
11122;DHT22;5615;49.304;10.576;2023-07-29T12:32:43;27.80;99.90
11122;DHT22;5615;49.304;10.576;2023-07-29T12:35:10;27.80;99.90
11122;DHT22;5615;49.304;10.576;2023-07-29T12:37:37;27.70;99.90
11122;DHT22;5615;49.304;10.576;2023-07-29T12:40:05;27.70;99.90
11122;DHT22;5615;49.304;10.576;2023-07-29T12:42:33;28.50;99.90
11122;DHT22;5615;49.304;10.576;2023-07-29T12:44:59;27.00;99.90
11122;DHT22;5615;49.304;10.576;2023-07-29T12:47:26;26.30;99.90
11122;DHT22;5615;49.304;10.576;2023-07-29T12:49:53;26.70;99.90
11122;DHT22;5615;49.304;10.576;2023-07-29T12:52:19;27.20;99.90
11122;DHT22;5615;49.304;10.576;2023-07-29T12:54:46;26.40;99.90
11122;DHT22;5615;49.304;10.576;2023-07-29T12:57:13;25.80;99.90
11122;DHT22;5615;49.304;10.576;2023-07-29T12:59:40;25.30;99.90
11122;DHT22;5615;49.304;10.576;2023-07-29T13:02:07;25.20;99.90
11122;DHT22;5615;49.304;10.576;2023-07-29T13:04:34;25.80;99.90
11122;DHT22;5615;49.304;10.576;2023-07-29T13:07:01;25.90;99.90
11122;DHT22;5615;49.304;10.576;2023-07-29T13:09:27;25.80;99.90
11122;DHT22;5615;49.304;10.576;2023-07-29T13:11:54;26.30;99.90
11122;DHT22;5615;49.304;10.576;2023-07-29T13:14:20;26.80;99.90
11122;DHT22;5615;49.304;10.576;2023-07-29T13:16:48;26.70;99.90
11122;DHT22;5615;49.304;10.576;2023-07-29T13:19:15;26.90;99.90
11122;DHT22;5615;49.304;10.576;2023-07-29T13:21:42;27.70;99.90
11122;DHT22;5615;49.304;10.576;2023-07-29T13:24:08;27.70;99.90
11122;DHT22;5615;49.304;10.576;2023-07-29T13:26:35;27.00;99.90
11122;DHT22;5615;49.304;10.576;2023-07-29T13:29:01;27.90;99.90
11122;DHT22;5615;49.304;10.576;2023-07-29T13:31:29;27.60;99.90
11122;DHT22;5615;49.304;10.576;2023-07-29T13:33:57;26.40;99.90
11122;DHT22;5615;49.304;10.576;2023-07-29T13:36:24;26.20;99.90
11122;DHT22;5615;49.304;10.576;2023-07-29T13:38:50;26.60;99.90
11122;DHT22;5615;49.304;10.576;2023-07-29T13:41:17;27.30;99.90
11122;DHT22;5615;49.304;10.576;2023-07-29T13:43:44;27.20;99.90
11122;DHT22;5615;49.304;10.576;2023-07-29T13:46:10;27.50;99.90
11122;DHT22;5615;49.304;10.576;2023-07-29T13:48:37;28.10;99.90
11122;DHT22;5615;49.304;10.576;2023-07-29T13:51:05;28.80;99.90
11122;DHT22;5615;49.304;10.576;2023-07-29T13:53:31;28.90;99.90
11122;DHT22;5615;49.304;10.576;2023-07-29T13:55:58;28.10;99.90
11122;DHT22;5615;49.304;10.576;2023-07-29T13:58:33;27.60;99.90
11122;DHT22;5615;49.304;10.576;2023-07-29T14:01:00;28.90;99.90
11122;DHT22;5615;49.304;10.576;2023-07-29T14:03:27;27.80;99.90
11122;DHT22;5615;49.304;10.576;2023-07-29T14:05:53;27.40;99.90
11122;DHT22;5615;49.304;10.576;2023-07-29T14:08:20;26.80;99.90
11122;DHT22;5615;49.304;10.576;2023-07-29T14:10:48;27.20;99.90
11122;DHT22;5615;49.304;10.576;2023-07-29T14:13:15;27.30;99.90
11122;DHT22;5615;49.304;10.576;2023-07-29T14:15:43;26.00;99.90
11122;DHT22;5615;49.304;10.576;2023-07-29T14:18:09;26.20;99.90
11122;DHT22;5615;49.304;10.576;2023-07-29T14:20:36;25.40;99.90
11122;DHT22;5615;49.304;10.576;2023-07-29T14:23:03;25.50;99.90
11122;DHT22;5615;49.304;10.576;2023-07-29T14:25:29;25.20;99.90
11122;DHT22;5615;49.304;10.576;2023-07-29T14:27:56;25.40;99.90
11122;DHT22;5615;49.304;10.576;2023-07-29T14:30:23;25.80;99.90
11122;DHT22;5615;49.304;10.576;2023-07-29T14:32:50;25.70;99.90
11122;DHT22;5615;49.304;10.576;2023-07-29T14:35:17;25.70;99.90
11122;DHT22;5615;49.304;10.576;2023-07-29T14:37:44;25.90;99.90
11122;DHT22;5615;49.304;10.576;2023-07-29T14:40:10;26.20;99.90
11122;DHT22;5615;49.304;10.576;2023-07-29T14:42:37;26.30;99.90
11122;DHT22;5615;49.304;10.576;2023-07-29T14:45:05;27.10;99.90
11122;DHT22;5615;49.304;10.576;2023-07-29T14:47:31;27.20;99.90
11122;DHT22;5615;49.304;10.576;2023-07-29T14:50:01;27.90;99.90
11122;DHT22;5615;49.304;10.576;2023-07-29T14:52:28;28.20;99.90
11122;DHT22;5615;49.304;10.576;2023-07-29T14:54:54;27.80;99.90
11122;DHT22;5615;49.304;10.576;2023-07-29T14:57:21;28.30;99.90
11122;DHT22;5615;49.304;10.576;2023-07-29T14:59:48;28.00;99.90
11122;DHT22;5615;49.304;10.576;2023-07-29T15:02:14;28.30;99.90
11122;DHT22;5615;49.304;10.576;2023-07-29T15:04:41;28.90;99.90
11122;DHT22;5615;49.304;10.576;2023-07-29T15:07:09;27.90;99.90
11122;DHT22;5615;49.304;10.576;2023-07-29T15:09:35;27.70;99.90
11122;DHT22;5615;49.304;10.576;2023-07-29T15:12:03;28.00;99.90
11122;DHT22;5615;49.304;10.576;2023-07-29T15:14:29;28.20;99.90
11122;DHT22;5615;49.304;10.576;2023-07-29T15:16:56;28.70;99.90
11122;DHT22;5615;49.304;10.576;2023-07-29T15:19:23;28.70;99.90
11122;DHT22;5615;49.304;10.576;2023-07-29T15:21:50;28.90;99.90
11122;DHT22;5615;49.304;10.576;2023-07-29T15:24:18;29.60;99.90
11122;DHT22;5615;49.304;10.576;2023-07-29T15:26:44;30.40;99.90
11122;DHT22;5615;49.304;10.576;2023-07-29T15:29:11;30.20;99.90
11122;DHT22;5615;49.304;10.576;2023-07-29T15:31:40;30.80;99.90